sensor_id;sensor_type;location;lat;lon;timestamp;pressure;altitude;pressure_sealevel;temperature;humidity
77590;BME280;66746;51.328;12.332;2023-03-01T00:01:17;101897.00;;;-2.71;81.39
77590;BME280;66746;51.328;12.332;2023-03-01T00:03:44;101894.06;;;-2.78;80.76
77590;BME280;66746;51.328;12.332;2023-03-01T00:06:11;101893.09;;;-2.80;81.03
77590;BME280;66746;51.328;12.332;2023-03-01T00:08:37;101901.09;;;-2.79;81.30
77590;BME280;66746;51.328;12.332;2023-03-01T00:11:08;101904.66;;;-2.78;81.63
77590;BME280;66746;51.328;12.332;2023-03-01T00:13:35;101888.66;;;-2.80;82.26
77590;BME280;66746;51.328;12.332;2023-03-01T00:16:03;101894.22;;;-2.74;82.13
77590;BME280;66746;51.328;12.332;2023-03-01T00:18:29;101895.06;;;-2.75;81.13
77590;BME280;66746;51.328;12.332;2023-03-01T00:20:56;101882.28;;;-2.85;79.20
77590;BME280;66746;51.328;12.332;2023-03-01T00:23:23;101885.75;;;-2.86;80.46
77590;BME280;66746;51.328;12.332;2023-03-01T00:25:50;101881.13;;;-2.91;80.58
77590;BME280;66746;51.328;12.332;2023-03-01T00:28:19;101886.16;;;-2.97;80.32
77590;BME280;66746;51.328;12.332;2023-03-01T00:30:46;101883.34;;;-3.02;80.74
77590;BME280;66746;51.328;12.332;2023-03-01T00:33:13;101895.56;;;-3.05;79.87
77590;BME280;66746;51.328;12.332;2023-03-01T00:35:40;101896.22;;;-3.11;80.18
77590;BME280;66746;51.328;12.332;2023-03-01T00:38:06;101891.81;;;-3.10;80.29
77590;BME280;66746;51.328;12.332;2023-03-01T00:40:34;101888.00;;;-3.17;80.76
77590;BME280;66746;51.328;12.332;2023-03-01T00:43:01;101860.97;;;-3.29;81.37
77590;BME280;66746;51.328;12.332;2023-03-01T00:45:30;101884.53;;;-3.16;81.51
77590;BME280;66746;51.328;12.332;2023-03-01T00:47:57;101877.28;;;-3.20;80.56
77590;BME280;66746;51.328;12.332;2023-03-01T00:50:24;101852.38;;;-3.23;81.57
77590;BME280;66746;51.328;12.332;2023-03-01T00:52:52;101868.47;;;-3.19;82.58
77590;BME280;66746;51.328;12.332;2023-03-01T00:55:19;101866.66;;;-3.20;82.48
77590;BME280;66746;51.328;12.332;2023-03-01T00:57:45;101861.38;;;-3.20;81.59
77590;BME280;66746;51.328;12.332;2023-03-01T01:00:12;101845.31;;;-3.23;80.46
77590;BME280;66746;51.328;12.332;2023-03-01T01:02:40;101858.66;;;-3.21;80.17
77590;BME280;66746;51.328;12.332;2023-03-01T01:05:07;101857.75;;;-3.22;81.42
77590;BME280;66746;51.328;12.332;2023-03-01T01:07:34;101864.84;;;-3.21;80.60
77590;BME280;66746;51.328;12.332;2023-03-01T01:10:01;101868.22;;;-3.25;80.72
77590;BME280;66746;51.328;12.332;2023-03-01T01:12:27;101851.94;;;-3.34;81.16
77590;BME280;66746;51.328;12.332;2023-03-01T01:14:53;101855.66;;;-3.29;81.50
77590;BME280;66746;51.328;12.332;2023-03-01T01:17:20;101855.44;;;-3.35;81.06
77590;BME280;66746;51.328;12.332;2023-03-01T01:19:48;101831.88;;;-3.48;81.32
77590;BME280;66746;51.328;12.332;2023-03-01T01:22:14;101847.38;;;-3.36;81.47
77590;BME280;66746;51.328;12.332;2023-03-01T01:24:42;101842.75;;;-3.42;81.34
77590;BME280;66746;51.328;12.332;2023-03-01T01:27:08;101836.47;;;-3.44;82.57
77590;BME280;66746;51.328;12.332;2023-03-01T01:29:35;101828.41;;;-3.47;81.99
77590;BME280;66746;51.328;12.332;2023-03-01T01:32:01;101821.28;;;-3.48;83.33
77590;BME280;66746;51.328;12.332;2023-03-01T01:34:28;101835.75;;;-3.40;82.48
77590;BME280;66746;51.328;12.332;2023-03-01T01:36:56;101803.16;;;-3.58;82.91
77590;BME280;66746;51.328;12.332;2023-03-01T01:39:22;101832.91;;;-3.44;82.06
77590;BME280;66746;51.328;12.332;2023-03-01T01:41:49;101812.81;;;-3.60;81.74
77590;BME280;66746;51.328;12.332;2023-03-01T01:44:17;101840.69;;;-3.49;81.57
77590;BME280;66746;51.328;12.332;2023-03-01T01:46:47;101834.09;;;-3.58;80.77
77590;BME280;66746;51.328;12.332;2023-03-01T01:49:23;101826.75;;;-3.64;80.82
77590;BME280;66746;51.328;12.332;2023-03-01T01:51:57;101809.25;;;-3.81;81.60
77590;BME280;66746;51.328;12.332;2023-03-01T01:54:28;101820.97;;;-3.76;82.34
77590;BME280;66746;51.328;12.332;2023-03-01T01:57:00;101817.25;;;-3.80;83.47
77590;BME280;66746;51.328;12.332;2023-03-01T01:59:30;101811.06;;;-3.80;83.46
77590;BME280;66746;51.328;12.332;2023-03-01T02:01:59;101821.78;;;-3.77;84.14
77590;BME280;66746;51.328;12.332;2023-03-01T02:04:27;101821.03;;;-3.75;84.20
77590;BME280;66746;51.328;12.332;2023-03-01T02:07:01;101818.44;;;-3.73;82.95
77590;BME280;66746;51.328;12.332;2023-03-01T02:09:30;101809.41;;;-3.78;81.31
77590;BME280;66746;51.328;12.332;2023-03-01T02:11:58;101807.56;;;-3.79;82.62
77590;BME280;66746;51.328;12.332;2023-03-01T02:14:25;101804.88;;;-3.81;83.12
77590;BME280;66746;51.328;12.332;2023-03-01T02:16:51;101794.91;;;-3.86;83.96
77590;BME280;66746;51.328;12.332;2023-03-01T02:19:28;101804.66;;;-3.85;83.19
77590;BME280;66746;51.328;12.332;2023-03-01T02:22:03;101793.88;;;-3.90;82.95
77590;BME280;66746;51.328;12.332;2023-03-01T02:24:38;101784.97;;;-3.92;83.50
77590;BME280;66746;51.328;12.332;2023-03-01T02:27:09;101801.44;;;-3.78;83.69
77590;BME280;66746;51.328;12.332;2023-03-01T02:29:37;101802.28;;;-3.79;82.46
77590;BME280;66746;51.328;12.332;2023-03-01T02:32:04;101797.56;;;-3.86;82.90
77590;BME280;66746;51.328;12.332;2023-03-01T02:34:32;101803.03;;;-3.82;82.78
77590;BME280;66746;51.328;12.332;2023-03-01T02:37:01;101805.50;;;-3.86;82.00
77590;BME280;66746;51.328;12.332;2023-03-01T02:39:31;101812.59;;;-3.85;83.52
77590;BME280;66746;51.328;12.332;2023-03-01T02:41:59;101805.50;;;-3.86;82.84
77590;BME280;66746;51.328;12.332;2023-03-01T02:44:28;101808.88;;;-3.90;82.70
77590;BME280;66746;51.328;12.332;2023-03-01T02:46:56;101805.38;;;-3.89;82.90
77590;BME280;66746;51.328;12.332;2023-03-01T02:49:29;101812.34;;;-3.91;83.51
77590;BME280;66746;51.328;12.332;2023-03-01T02:54:58;101812.97;;;-3.97;83.57
77590;BME280;66746;51.328;12.332;2023-03-01T02:57:28;101810.28;;;-3.98;84.10
77590;BME280;66746;51.328;12.332;2023-03-01T02:59:57;101805.69;;;-4.02;84.27
77590;BME280;66746;51.328;12.332;2023-03-01T03:02:29;101818.00;;;-4.03;84.15
77590;BME280;66746;51.328;12.332;2023-03-01T03:04:56;101796.91;;;-4.20;83.88
77590;BME280;66746;51.328;12.332;2023-03-01T03:07:22;101813.25;;;-4.11;83.37
77590;BME280;66746;51.328;12.332;2023-03-01T03:09:49;101790.72;;;-4.21;84.32
77590;BME280;66746;51.328;12.332;2023-03-01T03:12:15;101798.81;;;-4.18;83.81
77590;BME280;66746;51.328;12.332;2023-03-01T03:14:42;101807.66;;;-4.17;84.82
77590;BME280;66746;51.328;12.332;2023-03-01T03:17:08;101806.69;;;-4.19;85.75
77590;BME280;66746;51.328;12.332;2023-03-01T03:19:36;101798.88;;;-4.16;86.59
77590;BME280;66746;51.328;12.332;2023-03-01T03:22:03;101793.56;;;-4.16;85.48
77590;BME280;66746;51.328;12.332;2023-03-01T03:24:29;101751.19;;;-4.37;86.17
77590;BME280;66746;51.328;12.332;2023-03-01T03:26:56;101786.75;;;-4.11;85.82
77590;BME280;66746;51.328;12.332;2023-03-01T03:29:22;101785.09;;;-4.09;85.41
77590;BME280;66746;51.328;12.332;2023-03-01T03:31:49;101783.25;;;-4.10;85.28
77590;BME280;66746;51.328;12.332;2023-03-01T03:34:15;101779.56;;;-4.14;83.55
77590;BME280;66746;51.328;12.332;2023-03-01T03:36:43;101778.53;;;-4.17;84.75
77590;BME280;66746;51.328;12.332;2023-03-01T03:39:09;101785.25;;;-4.25;84.00
77590;BME280;66746;51.328;12.332;2023-03-01T03:41:36;101776.50;;;-4.23;85.96
77590;BME280;66746;51.328;12.332;2023-03-01T03:44:02;101776.25;;;-4.29;84.48
77590;BME280;66746;51.328;12.332;2023-03-01T03:46:29;101776.09;;;-4.32;84.86
77590;BME280;66746;51.328;12.332;2023-03-01T03:48:55;101778.69;;;-4.33;85.78
77590;BME280;66746;51.328;12.332;2023-03-01T03:51:22;101775.06;;;-4.35;85.24
77590;BME280;66746;51.328;12.332;2023-03-01T03:53:50;101761.78;;;-4.37;85.66
77590;BME280;66746;51.328;12.332;2023-03-01T03:56:16;101760.22;;;-4.32;86.29
77590;BME280;66746;51.328;12.332;2023-03-01T03:58:42;101747.03;;;-4.30;86.76
77590;BME280;66746;51.328;12.332;2023-03-01T04:01:09;101756.88;;;-4.28;85.97
77590;BME280;66746;51.328;12.332;2023-03-01T04:03:35;101764.81;;;-4.28;85.96
77590;BME280;66746;51.328;12.332;2023-03-01T04:06:02;101760.44;;;-4.27;86.32
77590;BME280;66746;51.328;12.332;2023-03-01T04:08:29;101763.63;;;-4.15;87.25
77590;BME280;66746;51.328;12.332;2023-03-01T04:11:02;101772.44;;;-4.15;86.54
77590;BME280;66746;51.328;12.332;2023-03-01T04:13:29;101768.91;;;-4.15;86.44
77590;BME280;66746;51.328;12.332;2023-03-01T04:15:55;101768.91;;;-4.15;86.76
77590;BME280;66746;51.328;12.332;2023-03-01T04:18:23;101763.75;;;-4.12;86.45
77590;BME280;66746;51.328;12.332;2023-03-01T04:20:50;101726.66;;;-4.33;86.81
77590;BME280;66746;51.328;12.332;2023-03-01T04:23:20;101763.91;;;-4.09;86.86
77590;BME280;66746;51.328;12.332;2023-03-01T04:25:48;101760.53;;;-4.05;87.06
77590;BME280;66746;51.328;12.332;2023-03-01T04:28:17;101751.47;;;-4.10;86.39
77590;BME280;66746;51.328;12.332;2023-03-01T04:30:43;101756.19;;;-4.03;86.86
77590;BME280;66746;51.328;12.332;2023-03-01T04:33:10;101757.16;;;-4.01;86.28
77590;BME280;66746;51.328;12.332;2023-03-01T04:35:37;101760.53;;;-4.05;86.01
77590;BME280;66746;51.328;12.332;2023-03-01T04:38:04;101749.78;;;-4.08;86.46
77590;BME280;66746;51.328;12.332;2023-03-01T04:40:31;101753.03;;;-4.15;85.59
77590;BME280;66746;51.328;12.332;2023-03-01T04:42:58;101754.81;;;-4.14;86.20
77590;BME280;66746;51.328;12.332;2023-03-01T04:45:26;101755.53;;;-4.18;85.88
77590;BME280;66746;51.328;12.332;2023-03-01T04:47:52;101755.59;;;-4.17;87.09
77590;BME280;66746;51.328;12.332;2023-03-01T04:50:19;101751.09;;;-4.19;86.94
77590;BME280;66746;51.328;12.332;2023-03-01T04:52:47;101761.94;;;-4.13;86.60
77590;BME280;66746;51.328;12.332;2023-03-01T04:55:14;101765.34;;;-4.16;86.62
77590;BME280;66746;51.328;12.332;2023-03-01T04:57:41;101763.47;;;-4.18;86.10
77590;BME280;66746;51.328;12.332;2023-03-01T05:00:11;101766.19;;;-4.17;86.40
77590;BME280;66746;51.328;12.332;2023-03-01T05:02:39;101755.59;;;-4.17;86.82
77590;BME280;66746;51.328;12.332;2023-03-01T05:05:06;101759.56;;;-4.07;87.89
77590;BME280;66746;51.328;12.332;2023-03-01T05:07:33;101755.75;;;-4.14;86.42
77590;BME280;66746;51.328;12.332;2023-03-01T05:09:59;101769.69;;;-4.18;86.02
77590;BME280;66746;51.328;12.332;2023-03-01T05:12:25;101762.94;;;-4.30;85.31
77590;BME280;66746;51.328;12.332;2023-03-01T05:14:52;101765.56;;;-4.30;87.09
77590;BME280;66746;51.328;12.332;2023-03-01T05:17:18;101763.19;;;-4.24;86.57
77590;BME280;66746;51.328;12.332;2023-03-01T05:19:46;101756.13;;;-4.25;87.21
77590;BME280;66746;51.328;12.332;2023-03-01T05:22:12;101760.78;;;-4.20;86.37
77590;BME280;66746;51.328;12.332;2023-03-01T05:24:39;101751.84;;;-4.22;86.37
77590;BME280;66746;51.328;12.332;2023-03-01T05:27:05;101757.16;;;-4.22;85.76
77590;BME280;66746;51.328;12.332;2023-03-01T05:29:32;101755.41;;;-4.21;86.32
77590;BME280;66746;51.328;12.332;2023-03-01T05:31:59;101757.34;;;-4.17;86.54
77590;BME280;66746;51.328;12.332;2023-03-01T05:34:28;101754.72;;;-4.17;87.21
77590;BME280;66746;51.328;12.332;2023-03-01T05:36:57;101754.44;;;-4.23;86.27
77590;BME280;66746;51.328;12.332;2023-03-01T05:39:25;101753.47;;;-4.25;86.49
77590;BME280;66746;51.328;12.332;2023-03-01T05:41:53;101756.38;;;-4.19;87.00
77590;BME280;66746;51.328;12.332;2023-03-01T05:44:20;101760.06;;;-4.16;86.68
77590;BME280;66746;51.328;12.332;2023-03-01T05:46:46;101730.34;;;-4.29;86.18
77590;BME280;66746;51.328;12.332;2023-03-01T05:49:13;101752.44;;;-4.08;86.98
77590;BME280;66746;51.328;12.332;2023-03-01T05:51:40;101751.47;;;-4.10;86.21
77590;BME280;66746;51.328;12.332;2023-03-01T05:54:08;101758.06;;;-4.01;86.54
77590;BME280;66746;51.328;12.332;2023-03-01T05:56:36;101734.41;;;-4.17;86.10
77590;BME280;66746;51.328;12.332;2023-03-01T05:59:04;101757.09;;;-4.03;86.36
77590;BME280;66746;51.328;12.332;2023-03-01T06:01:31;101762.34;;;-4.04;85.94
77590;BME280;66746;51.328;12.332;2023-03-01T06:03:58;101767.75;;;-4.01;86.90
77590;BME280;66746;51.328;12.332;2023-03-01T06:06:24;101760.66;;;-4.02;86.19
77590;BME280;66746;51.328;12.332;2023-03-01T06:08:54;101765.84;;;-4.05;85.86
77590;BME280;66746;51.328;12.332;2023-03-01T06:11:22;101764.00;;;-4.06;86.02
77590;BME280;66746;51.328;12.332;2023-03-01T06:13:49;101767.50;;;-4.07;86.30
77590;BME280;66746;51.328;12.332;2023-03-01T06:16:15;101770.00;;;-4.10;85.23
77590;BME280;66746;51.328;12.332;2023-03-01T06:18:42;101769.03;;;-4.12;84.82
77590;BME280;66746;51.328;12.332;2023-03-01T06:21:09;101772.53;;;-4.13;86.43
77590;BME280;66746;51.328;12.332;2023-03-01T06:23:35;101765.56;;;-4.11;86.22
77590;BME280;66746;51.328;12.332;2023-03-01T06:26:06;101761.81;;;-4.16;84.75
77590;BME280;66746;51.328;12.332;2023-03-01T06:28:34;101755.31;;;-4.23;84.99
77590;BME280;66746;51.328;12.332;2023-03-01T06:31:00;101758.94;;;-4.21;84.84
77590;BME280;66746;51.328;12.332;2023-03-01T06:33:27;101752.75;;;-4.21;85.28
77590;BME280;66746;51.328;12.332;2023-03-01T06:35:56;101768.81;;;-3.98;85.85
77590;BME280;66746;51.328;12.332;2023-03-01T06:38:23;101762.72;;;-3.95;85.83
77590;BME280;66746;51.328;12.332;2023-03-01T06:40:53;101766.84;;;-3.81;85.59
77590;BME280;66746;51.328;12.332;2023-03-01T06:43:21;101771.00;;;-3.67;85.12
77590;BME280;66746;51.328;12.332;2023-03-01T06:45:49;101716.81;;;-3.74;84.58
77590;BME280;66746;51.328;12.332;2023-03-01T06:48:16;101751.16;;;-3.34;84.51
77590;BME280;66746;51.328;12.332;2023-03-01T06:50:42;101758.47;;;-3.06;83.75
77590;BME280;66746;51.328;12.332;2023-03-01T06:53:09;101758.50;;;-2.83;83.53
77590;BME280;66746;51.328;12.332;2023-03-01T06:55:35;101753.03;;;-2.63;82.12
77590;BME280;66746;51.328;12.332;2023-03-01T06:58:02;101741.94;;;-2.53;82.26
77590;BME280;66746;51.328;12.332;2023-03-01T07:00:30;101738.16;;;-2.35;81.41
77590;BME280;66746;51.328;12.332;2023-03-01T07:02:59;101759.84;;;-1.99;80.85
77590;BME280;66746;51.328;12.332;2023-03-01T07:05:26;101751.53;;;-1.83;79.94
77590;BME280;66746;51.328;12.332;2023-03-01T07:07:53;101758.44;;;-1.63;79.45
77590;BME280;66746;51.328;12.332;2023-03-01T07:10:19;101754.56;;;-1.46;78.33
77590;BME280;66746;51.328;12.332;2023-03-01T07:12:46;101742.72;;;-1.29;78.04
77590;BME280;66746;51.328;12.332;2023-03-01T07:15:12;101735.13;;;-1.17;77.26
77590;BME280;66746;51.328;12.332;2023-03-01T07:17:39;101743.78;;;-0.96;76.47
77590;BME280;66746;51.328;12.332;2023-03-01T07:20:08;101717.34;;;-0.90;75.86
77590;BME280;66746;51.328;12.332;2023-03-01T07:22:40;101722.63;;;-0.61;75.16
77590;BME280;66746;51.328;12.332;2023-03-01T07:25:07;101744.56;;;-0.40;74.43
77590;BME280;66746;51.328;12.332;2023-03-01T07:27:34;101717.13;;;-0.36;74.67
77590;BME280;66746;51.328;12.332;2023-03-01T07:30:00;101686.28;;;-0.28;73.56
77590;BME280;66746;51.328;12.332;2023-03-01T07:32:27;101729.78;;;0.04;73.88
77590;BME280;66746;51.328;12.332;2023-03-01T07:34:54;101729.44;;;0.24;72.84
77590;BME280;66746;51.328;12.332;2023-03-01T07:37:21;101727.97;;;0.35;71.91
77590;BME280;66746;51.328;12.332;2023-03-01T07:39:50;101727.59;;;0.57;71.39
77590;BME280;66746;51.328;12.332;2023-03-01T07:42:16;101721.78;;;0.73;70.88
77590;BME280;66746;51.328;12.332;2023-03-01T07:44:43;101731.03;;;0.87;71.40
77590;BME280;66746;51.328;12.332;2023-03-01T07:47:09;101729.63;;;1.05;69.96
77590;BME280;66746;51.328;12.332;2023-03-01T07:49:36;101727.38;;;1.23;69.51
77590;BME280;66746;51.328;12.332;2023-03-01T07:52:02;101726.69;;;1.33;70.49
77590;BME280;66746;51.328;12.332;2023-03-01T07:54:30;101734.16;;;1.49;68.39
77590;BME280;66746;51.328;12.332;2023-03-01T07:56:57;101721.91;;;1.58;68.20
77590;BME280;66746;51.328;12.332;2023-03-01T07:59:23;101707.53;;;1.53;68.27
77590;BME280;66746;51.328;12.332;2023-03-01T08:01:50;101704.28;;;1.68;68.24
77590;BME280;66746;51.328;12.332;2023-03-01T08:04:16;101688.16;;;1.65;66.81
77590;BME280;66746;51.328;12.332;2023-03-01T08:06:43;101722.59;;;1.93;67.57
77590;BME280;66746;51.328;12.332;2023-03-01T08:09:09;101721.13;;;2.10;66.43
77590;BME280;66746;51.328;12.332;2023-03-01T08:11:37;101715.06;;;2.20;66.07
77590;BME280;66746;51.328;12.332;2023-03-01T08:14:05;101711.50;;;2.21;65.25
77590;BME280;66746;51.328;12.332;2023-03-01T08:16:32;101716.03;;;2.25;62.75
77590;BME280;66746;51.328;12.332;2023-03-01T08:19:03;101716.91;;;2.23;62.19
77590;BME280;66746;51.328;12.332;2023-03-01T08:21:30;101710.78;;;2.31;61.69
77590;BME280;66746;51.328;12.332;2023-03-01T08:23:56;101677.03;;;2.39;61.73
77590;BME280;66746;51.328;12.332;2023-03-01T08:26:23;101714.81;;;2.59;60.35
77590;BME280;66746;51.328;12.332;2023-03-01T08:28:51;101698.75;;;2.57;60.15
77590;BME280;66746;51.328;12.332;2023-03-01T08:31:20;101703.56;;;2.80;60.44
77590;BME280;66746;51.328;12.332;2023-03-01T08:33:47;101700.06;;;2.84;59.89
77590;BME280;66746;51.328;12.332;2023-03-01T08:36:14;101701.06;;;2.92;59.79
77590;BME280;66746;51.328;12.332;2023-03-01T08:38:41;101682.63;;;3.14;59.75
77590;BME280;66746;51.328;12.332;2023-03-01T08:41:07;101695.19;;;3.18;58.96
77590;BME280;66746;51.328;12.332;2023-03-01T08:43:34;101699.78;;;3.27;59.20
77590;BME280;66746;51.328;12.332;2023-03-01T08:46:02;101696.31;;;3.37;57.76
77590;BME280;66746;51.328;12.332;2023-03-01T08:48:29;101694.72;;;3.51;58.00
77590;BME280;66746;51.328;12.332;2023-03-01T08:50:55;101693.03;;;3.60;57.20
77590;BME280;66746;51.328;12.332;2023-03-01T08:53:22;101671.50;;;3.54;57.23
77590;BME280;66746;51.328;12.332;2023-03-01T08:55:48;101666.28;;;3.65;57.00
77590;BME280;66746;51.328;12.332;2023-03-01T08:58:16;101691.56;;;3.88;57.71
77590;BME280;66746;51.328;12.332;2023-03-01T09:00:42;101680.91;;;3.94;56.60
77590;BME280;66746;51.328;12.332;2023-03-01T09:03:10;101675.72;;;4.15;55.95
77590;BME280;66746;51.328;12.332;2023-03-01T09:05:36;101682.91;;;4.15;56.08
77590;BME280;66746;51.328;12.332;2023-03-01T09:08:03;101686.56;;;4.23;58.30
77590;BME280;66746;51.328;12.332;2023-03-01T09:10:30;101683.09;;;4.37;55.52
77590;BME280;66746;51.328;12.332;2023-03-01T09:12:56;101673.38;;;4.50;55.45
77590;BME280;66746;51.328;12.332;2023-03-01T09:15:23;101672.53;;;4.56;54.14
77590;BME280;66746;51.328;12.332;2023-03-01T09:17:49;101669.94;;;4.72;54.97
77590;BME280;66746;51.328;12.332;2023-03-01T09:20:17;101666.56;;;5.02;53.32
77590;BME280;66746;51.328;12.332;2023-03-01T09:22:44;101655.75;;;4.96;52.87
77590;BME280;66746;51.328;12.332;2023-03-01T09:25:10;101667.53;;;5.13;53.30
77590;BME280;66746;51.328;12.332;2023-03-01T09:27:39;101629.63;;;4.71;51.83
77590;BME280;66746;51.328;12.332;2023-03-01T09:30:07;101625.25;;;4.88;51.88
77590;BME280;66746;51.328;12.332;2023-03-01T09:32:34;101657.66;;;5.09;53.35
77590;BME280;66746;51.328;12.332;2023-03-01T09:35:01;101655.91;;;5.21;52.00
77590;BME280;66746;51.328;12.332;2023-03-01T09:37:29;101629.75;;;4.92;52.70
77590;BME280;66746;51.328;12.332;2023-03-01T09:39:55;101619.03;;;4.98;53.17
77590;BME280;66746;51.328;12.332;2023-03-01T09:42:22;101635.34;;;5.37;52.61
77590;BME280;66746;51.328;12.332;2023-03-01T09:44:51;101639.75;;;5.17;51.37
77590;BME280;66746;51.328;12.332;2023-03-01T09:47:21;101650.69;;;5.59;51.36
77590;BME280;66746;51.328;12.332;2023-03-01T09:49:58;101618.44;;;5.70;49.95
77590;BME280;66746;51.328;12.332;2023-03-01T09:52:34;101640.06;;;6.53;49.34
77590;BME280;66746;51.328;12.332;2023-03-01T09:55:09;101630.91;;;7.23;46.67
77590;BME280;66746;51.328;12.332;2023-03-01T09:57:45;101601.97;;;7.52;45.11
77590;BME280;66746;51.328;12.332;2023-03-01T10:00:25;101626.53;;;6.86;46.88
77590;BME280;66746;51.328;12.332;2023-03-01T10:02:57;101642.75;;;6.65;46.84
77590;BME280;66746;51.328;12.332;2023-03-01T10:05:34;101640.94;;;6.55;47.51
77590;BME280;66746;51.328;12.332;2023-03-01T10:08:26;101632.88;;;6.35;47.91
77590;BME280;66746;51.328;12.332;2023-03-01T10:10:53;101605.06;;;6.32;47.47
77590;BME280;66746;51.328;12.332;2023-03-01T10:13:22;101642.75;;;6.69;47.09
77590;BME280;66746;51.328;12.332;2023-03-01T10:15:53;101644.38;;;7.32;46.00
77590;BME280;66746;51.328;12.332;2023-03-01T10:18:23;101628.22;;;7.26;46.66
77590;BME280;66746;51.328;12.332;2023-03-01T10:20:53;101631.81;;;7.22;46.25
77590;BME280;66746;51.328;12.332;2023-03-01T10:23:24;101628.31;;;6.85;47.23
77590;BME280;66746;51.328;12.332;2023-03-01T10:26:09;101633.75;;;6.66;47.77
77590;BME280;66746;51.328;12.332;2023-03-01T10:28:45;101626.53;;;6.68;48.24
77590;BME280;66746;51.328;12.332;2023-03-01T10:31:18;101630.16;;;6.73;48.19
77590;BME280;66746;51.328;12.332;2023-03-01T10:33:48;101624.75;;;6.74;47.90
77590;BME280;66746;51.328;12.332;2023-03-01T10:36:14;101619.34;;;6.85;48.14
77590;BME280;66746;51.328;12.332;2023-03-01T10:38:51;101633.72;;;6.81;47.49
77590;BME280;66746;51.328;12.332;2023-03-01T10:41:18;101605.00;;;6.59;47.41
77590;BME280;66746;51.328;12.332;2023-03-01T10:43:46;101614.84;;;6.85;48.08
77590;BME280;66746;51.328;12.332;2023-03-01T10:46:25;101622.00;;;6.98;47.51
77590;BME280;66746;51.328;12.332;2023-03-01T10:49:07;101617.50;;;7.02;45.40
77590;BME280;66746;51.328;12.332;2023-03-01T10:51:34;101616.63;;;6.98;46.49
77590;BME280;66746;51.328;12.332;2023-03-01T10:54:03;101606.81;;;6.60;45.77
77590;BME280;66746;51.328;12.332;2023-03-01T10:56:45;101608.59;;;6.67;46.40
77590;BME280;66746;51.328;12.332;2023-03-01T10:59:21;101604.09;;;6.73;47.31
77590;BME280;66746;51.328;12.332;2023-03-01T11:02:02;101603.16;;;6.86;46.81
77590;BME280;66746;51.328;12.332;2023-03-01T11:04:56;101594.13;;;6.98;47.15
77590;BME280;66746;51.328;12.332;2023-03-01T11:07:23;101581.53;;;7.10;46.01
77590;BME280;66746;51.328;12.332;2023-03-01T11:09:51;101593.13;;;7.23;46.25
77590;BME280;66746;51.328;12.332;2023-03-01T11:12:18;101598.50;;;7.34;46.67
77590;BME280;66746;51.328;12.332;2023-03-01T11:14:47;101598.38;;;7.55;44.58
77590;BME280;66746;51.328;12.332;2023-03-01T11:17:17;101595.59;;;7.68;43.71
77590;BME280;66746;51.328;12.332;2023-03-01T11:19:44;101599.16;;;7.76;44.01
77590;BME280;66746;51.328;12.332;2023-03-01T11:22:28;101591.00;;;7.87;45.46
77590;BME280;66746;51.328;12.332;2023-03-01T11:24:57;101589.88;;;8.11;46.11
77590;BME280;66746;51.328;12.332;2023-03-01T11:27:39;101584.59;;;7.95;46.19
77590;BME280;66746;51.328;12.332;2023-03-01T11:30:18;101559.69;;;7.54;45.63
77590;BME280;66746;51.328;12.332;2023-03-01T11:32:50;101575.84;;;7.60;46.19
77590;BME280;66746;51.328;12.332;2023-03-01T11:35:22;101593.00;;;7.53;46.87
77590;BME280;66746;51.328;12.332;2023-03-01T11:37:59;101557.16;;;7.30;46.19
77590;BME280;66746;51.328;12.332;2023-03-01T11:40:33;101570.50;;;7.51;46.97
77590;BME280;66746;51.328;12.332;2023-03-01T11:43:06;101583.09;;;7.52;46.05
77590;BME280;66746;51.328;12.332;2023-03-01T11:45:47;101582.22;;;7.52;45.77
77590;BME280;66746;51.328;12.332;2023-03-01T11:48:30;101585.84;;;7.45;46.70
77590;BME280;66746;51.328;12.332;2023-03-01T11:51:22;101565.16;;;7.44;46.07
77590;BME280;66746;51.328;12.332;2023-03-01T11:54:06;101566.91;;;7.55;46.11
77590;BME280;66746;51.328;12.332;2023-03-01T11:56:45;101555.16;;;7.58;45.87
77590;BME280;66746;51.328;12.332;2023-03-01T11:59:29;101559.72;;;7.51;46.58
77590;BME280;66746;51.328;12.332;2023-03-01T12:02:15;101549.91;;;7.37;48.81
77590;BME280;66746;51.328;12.332;2023-03-01T12:05:00;101552.47;;;7.59;46.39
77590;BME280;66746;51.328;12.332;2023-03-01T12:07:38;101552.53;;;7.44;46.88
77590;BME280;66746;51.328;12.332;2023-03-01T12:10:24;101545.31;;;7.55;46.87
77590;BME280;66746;51.328;12.332;2023-03-01T12:13:03;101552.31;;;7.82;45.28
77590;BME280;66746;51.328;12.332;2023-03-01T12:16:02;101519.84;;;7.89;44.51
77590;BME280;66746;51.328;12.332;2023-03-01T12:18:57;101543.56;;;8.56;43.22
77590;BME280;66746;51.328;12.332;2023-03-01T12:21:41;101520.44;;;8.28;43.14
77590;BME280;66746;51.328;12.332;2023-03-01T12:24:31;101530.84;;;8.64;43.12
77590;BME280;66746;51.328;12.332;2023-03-01T12:27:14;101531.53;;;8.84;42.02
77590;BME280;66746;51.328;12.332;2023-03-01T12:29:52;101497.13;;;8.95;42.00
77590;BME280;66746;51.328;12.332;2023-03-01T12:32:36;101499.13;;;8.78;40.31
77590;BME280;66746;51.328;12.332;2023-03-01T12:35:22;101521.75;;;8.72;41.06
77590;BME280;66746;51.328;12.332;2023-03-01T12:37:58;101523.16;;;8.19;42.62
77590;BME280;66746;51.328;12.332;2023-03-01T12:41:01;101520.53;;;8.13;42.77
77590;BME280;66746;51.328;12.332;2023-03-01T12:43:39;101496.63;;;7.67;43.08
77590;BME280;66746;51.328;12.332;2023-03-01T12:46:25;101512.78;;;7.70;42.74
77590;BME280;66746;51.328;12.332;2023-03-01T12:49:04;101494.88;;;7.63;44.86
77590;BME280;66746;51.328;12.332;2023-03-01T12:51:42;101466.19;;;7.44;46.79
77590;BME280;66746;51.328;12.332;2023-03-01T12:54:15;101466.19;;;7.47;44.94
77590;BME280;66746;51.328;12.332;2023-03-01T12:56:43;101483.09;;;7.70;45.22
77590;BME280;66746;51.328;12.332;2023-03-01T12:59:17;101471.31;;;7.80;43.96
77590;BME280;66746;51.328;12.332;2023-03-01T13:01:52;101483.13;;;7.67;44.44